sensor_id;sensor_type;location;lat;lon;timestamp;P1;durP1;ratioP1;P2;durP2;ratioP2
38797;SDS011;24546;52.240;16.826;2022-10-16T00:02:26;30.25;;;18.30;;
38797;SDS011;24546;52.240;16.826;2022-10-16T00:07:27;29.20;;;17.75;;
38797;SDS011;24546;52.240;16.826;2022-10-16T00:12:29;26.30;;;18.17;;
38797;SDS011;24546;52.240;16.826;2022-10-16T00:17:30;24.63;;;16.67;;
38797;SDS011;24546;52.240;16.826;2022-10-16T00:22:31;26.10;;;18.27;;
38797;SDS011;24546;52.240;16.826;2022-10-16T00:27:34;24.77;;;16.80;;
38797;SDS011;24546;52.240;16.826;2022-10-16T00:32:35;26.50;;;17.77;;
38797;SDS011;24546;52.240;16.826;2022-10-16T00:37:36;26.48;;;16.80;;
38797;SDS011;24546;52.240;16.826;2022-10-16T00:42:40;26.38;;;16.70;;
38797;SDS011;24546;52.240;16.826;2022-10-16T00:47:45;23.30;;;16.27;;
38797;SDS011;24546;52.240;16.826;2022-10-16T00:52:49;25.25;;;16.67;;
38797;SDS011;24546;52.240;16.826;2022-10-16T00:57:52;26.05;;;16.58;;
38797;SDS011;24546;52.240;16.826;2022-10-16T01:02:58;25.05;;;15.43;;
38797;SDS011;24546;52.240;16.826;2022-10-16T01:13:41;25.35;;;16.60;;
38797;SDS011;24546;52.240;16.826;2022-10-16T01:18:49;25.58;;;15.45;;
38797;SDS011;24546;52.240;16.826;2022-10-16T01:34:42;23.55;;;15.85;;
38797;SDS011;24546;52.240;16.826;2022-10-16T01:39:50;20.02;;;15.02;;
38797;SDS011;24546;52.240;16.826;2022-10-16T01:44:55;23.50;;;15.40;;
38797;SDS011;24546;52.240;16.826;2022-10-16T01:50:01;24.02;;;14.27;;
38797;SDS011;24546;52.240;16.826;2022-10-16T01:55:05;20.83;;;13.75;;
38797;SDS011;24546;52.240;16.826;2022-10-16T02:00:12;24.85;;;15.18;;
38797;SDS011;24546;52.240;16.826;2022-10-16T02:05:25;19.98;;;14.00;;
38797;SDS011;24546;52.240;16.826;2022-10-16T02:10:38;22.88;;;14.25;;
38797;SDS011;24546;52.240;16.826;2022-10-16T02:15:39;20.48;;;13.80;;
38797;SDS011;24546;52.240;16.826;2022-10-16T02:20:43;22.38;;;14.63;;
38797;SDS011;24546;52.240;16.826;2022-10-16T02:25:47;21.70;;;13.98;;
38797;SDS011;24546;52.240;16.826;2022-10-16T02:30:52;22.02;;;14.15;;
38797;SDS011;24546;52.240;16.826;2022-10-16T02:35:59;22.67;;;15.32;;
38797;SDS011;24546;52.240;16.826;2022-10-16T02:41:00;19.95;;;14.23;;
38797;SDS011;24546;52.240;16.826;2022-10-16T02:46:01;23.08;;;14.73;;
38797;SDS011;24546;52.240;16.826;2022-10-16T02:51:03;22.48;;;16.20;;
38797;SDS011;24546;52.240;16.826;2022-10-16T02:56:04;22.42;;;15.80;;
38797;SDS011;24546;52.240;16.826;2022-10-16T03:01:08;25.10;;;16.35;;
38797;SDS011;24546;52.240;16.826;2022-10-16T03:06:09;27.90;;;18.67;;
38797;SDS011;24546;52.240;16.826;2022-10-16T03:11:10;27.20;;;18.15;;
38797;SDS011;24546;52.240;16.826;2022-10-16T03:16:11;30.17;;;19.15;;
38797;SDS011;24546;52.240;16.826;2022-10-16T03:21:12;30.05;;;19.13;;
38797;SDS011;24546;52.240;16.826;2022-10-16T03:26:13;28.73;;;19.38;;
38797;SDS011;24546;52.240;16.826;2022-10-16T03:31:14;29.00;;;19.08;;
38797;SDS011;24546;52.240;16.826;2022-10-16T03:36:15;26.50;;;17.65;;
38797;SDS011;24546;52.240;16.826;2022-10-16T03:41:16;28.60;;;17.45;;
38797;SDS011;24546;52.240;16.826;2022-10-16T03:46:17;26.48;;;17.25;;
38797;SDS011;24546;52.240;16.826;2022-10-16T03:51:18;30.25;;;19.13;;
38797;SDS011;24546;52.240;16.826;2022-10-16T03:56:19;29.60;;;18.20;;
38797;SDS011;24546;52.240;16.826;2022-10-16T04:01:20;24.98;;;16.75;;
38797;SDS011;24546;52.240;16.826;2022-10-16T04:06:21;30.25;;;19.50;;
38797;SDS011;24546;52.240;16.826;2022-10-16T04:11:22;28.80;;;17.50;;
38797;SDS011;24546;52.240;16.826;2022-10-16T04:16:23;30.38;;;18.80;;
38797;SDS011;24546;52.240;16.826;2022-10-16T04:21:24;32.28;;;18.92;;
38797;SDS011;24546;52.240;16.826;2022-10-16T04:26:25;29.05;;;18.95;;
38797;SDS011;24546;52.240;16.826;2022-10-16T04:31:26;27.70;;;18.00;;
38797;SDS011;24546;52.240;16.826;2022-10-16T04:36:27;31.52;;;19.48;;
38797;SDS011;24546;52.240;16.826;2022-10-16T04:41:28;29.23;;;17.85;;
38797;SDS011;24546;52.240;16.826;2022-10-16T04:46:29;34.88;;;20.98;;
38797;SDS011;24546;52.240;16.826;2022-10-16T04:51:30;30.55;;;19.65;;
38797;SDS011;24546;52.240;16.826;2022-10-16T04:56:32;31.10;;;19.23;;
38797;SDS011;24546;52.240;16.826;2022-10-16T05:01:33;29.23;;;18.65;;
38797;SDS011;24546;52.240;16.826;2022-10-16T05:06:34;29.55;;;18.48;;
38797;SDS011;24546;52.240;16.826;2022-10-16T05:11:35;30.10;;;18.40;;
38797;SDS011;24546;52.240;16.826;2022-10-16T05:16:36;26.55;;;17.55;;
38797;SDS011;24546;52.240;16.826;2022-10-16T05:21:37;32.22;;;18.50;;
38797;SDS011;24546;52.240;16.826;2022-10-16T05:26:38;27.23;;;16.50;;
38797;SDS011;24546;52.240;16.826;2022-10-16T05:31:40;29.75;;;19.15;;
38797;SDS011;24546;52.240;16.826;2022-10-16T05:36:41;25.70;;;18.58;;
38797;SDS011;24546;52.240;16.826;2022-10-16T05:41:42;31.05;;;20.15;;
38797;SDS011;24546;52.240;16.826;2022-10-16T05:46:43;32.40;;;19.35;;
38797;SDS011;24546;52.240;16.826;2022-10-16T05:51:46;29.40;;;19.50;;
38797;SDS011;24546;52.240;16.826;2022-10-16T05:56:47;31.67;;;20.35;;
38797;SDS011;24546;52.240;16.826;2022-10-16T06:01:48;34.88;;;22.83;;
38797;SDS011;24546;52.240;16.826;2022-10-16T06:06:49;31.85;;;22.20;;
38797;SDS011;24546;52.240;16.826;2022-10-16T06:11:50;31.15;;;20.98;;
38797;SDS011;24546;52.240;16.826;2022-10-16T06:16:52;31.15;;;19.92;;
38797;SDS011;24546;52.240;16.826;2022-10-16T06:21:53;36.00;;;23.17;;
38797;SDS011;24546;52.240;16.826;2022-10-16T06:26:53;33.92;;;23.45;;
38797;SDS011;24546;52.240;16.826;2022-10-16T06:31:54;35.72;;;23.70;;
38797;SDS011;24546;52.240;16.826;2022-10-16T06:36:55;30.48;;;19.88;;
38797;SDS011;24546;52.240;16.826;2022-10-16T06:41:56;31.00;;;20.52;;
38797;SDS011;24546;52.240;16.826;2022-10-16T06:47:01;32.20;;;21.08;;
38797;SDS011;24546;52.240;16.826;2022-10-16T06:52:02;31.15;;;21.30;;
38797;SDS011;24546;52.240;16.826;2022-10-16T06:57:03;35.80;;;23.83;;
38797;SDS011;24546;52.240;16.826;2022-10-16T07:02:04;34.25;;;23.85;;
38797;SDS011;24546;52.240;16.826;2022-10-16T07:07:05;28.83;;;20.75;;
38797;SDS011;24546;52.240;16.826;2022-10-16T07:12:06;31.02;;;21.38;;
38797;SDS011;24546;52.240;16.826;2022-10-16T07:17:07;28.52;;;20.60;;
38797;SDS011;24546;52.240;16.826;2022-10-16T07:22:08;32.10;;;23.48;;
38797;SDS011;24546;52.240;16.826;2022-10-16T07:27:09;34.35;;;22.20;;
38797;SDS011;24546;52.240;16.826;2022-10-16T07:32:10;28.25;;;21.95;;
38797;SDS011;24546;52.240;16.826;2022-10-16T07:37:11;26.17;;;19.80;;
38797;SDS011;24546;52.240;16.826;2022-10-16T07:42:12;26.95;;;20.08;;
38797;SDS011;24546;52.240;16.826;2022-10-16T07:47:13;27.75;;;20.85;;
38797;SDS011;24546;52.240;16.826;2022-10-16T07:52:14;23.67;;;17.77;;
38797;SDS011;24546;52.240;16.826;2022-10-16T07:57:15;23.70;;;17.02;;
38797;SDS011;24546;52.240;16.826;2022-10-16T08:02:19;23.27;;;16.85;;
38797;SDS011;24546;52.240;16.826;2022-10-16T08:07:20;20.75;;;17.08;;
38797;SDS011;24546;52.240;16.826;2022-10-16T08:12:21;20.25;;;16.50;;
38797;SDS011;24546;52.240;16.826;2022-10-16T08:17:22;18.65;;;14.88;;
38797;SDS011;24546;52.240;16.826;2022-10-16T08:22:23;16.98;;;14.27;;
38797;SDS011;24546;52.240;16.826;2022-10-16T08:27:24;19.33;;;14.93;;
38797;SDS011;24546;52.240;16.826;2022-10-16T08:32:25;16.55;;;14.23;;
38797;SDS011;24546;52.240;16.826;2022-10-16T08:37:29;16.90;;;14.60;;
38797;SDS011;24546;52.240;16.826;2022-10-16T08:42:47;16.15;;;12.65;;
38797;SDS011;24546;52.240;16.826;2022-10-16T08:48:25;15.95;;;12.10;;
38797;SDS011;24546;52.240;16.826;2022-10-16T08:58:57;15.00;;;12.88;;
38797;SDS011;24546;52.240;16.826;2022-10-16T09:19:52;12.80;;;9.50;;
38797;SDS011;24546;52.240;16.826;2022-10-16T09:25:20;9.48;;;8.57;;
38797;SDS011;24546;52.240;16.826;2022-10-16T09:30:22;10.10;;;7.93;;
38797;SDS011;24546;52.240;16.826;2022-10-16T09:35:30;9.48;;;7.88;;
38797;SDS011;24546;52.240;16.826;2022-10-16T09:40:33;10.00;;;7.85;;
38797;SDS011;24546;52.240;16.826;2022-10-16T09:45:41;7.82;;;7.03;;
38797;SDS011;24546;52.240;16.826;2022-10-16T09:50:43;8.98;;;7.45;;
38797;SDS011;24546;52.240;16.826;2022-10-16T09:55:48;8.77;;;7.85;;
38797;SDS011;24546;52.240;16.826;2022-10-16T10:00:55;8.30;;;7.03;;
38797;SDS011;24546;52.240;16.826;2022-10-16T10:05:56;10.40;;;7.55;;
38797;SDS011;24546;52.240;16.826;2022-10-16T10:10:56;7.60;;;6.72;;
38797;SDS011;24546;52.240;16.826;2022-10-16T10:15:57;7.35;;;6.60;;
38797;SDS011;24546;52.240;16.826;2022-10-16T10:20:59;7.38;;;6.65;;
38797;SDS011;24546;52.240;16.826;2022-10-16T10:26:20;8.32;;;6.72;;
38797;SDS011;24546;52.240;16.826;2022-10-16T10:31:39;7.03;;;6.33;;
38797;SDS011;24546;52.240;16.826;2022-10-16T10:36:59;6.15;;;5.30;;
38797;SDS011;24546;52.240;16.826;2022-10-16T10:42:18;6.30;;;4.72;;
38797;SDS011;24546;52.240;16.826;2022-10-16T11:08:45;4.53;;;4.13;;
38797;SDS011;24546;52.240;16.826;2022-10-16T11:19:46;5.38;;;3.90;;
38797;SDS011;24546;52.240;16.826;2022-10-16T11:25:13;5.65;;;4.90;;
38797;SDS011;24546;52.240;16.826;2022-10-16T11:30:22;6.47;;;4.93;;
38797;SDS011;24546;52.240;16.826;2022-10-16T11:35:36;6.28;;;5.07;;
38797;SDS011;24546;52.240;16.826;2022-10-16T11:40:48;5.22;;;4.40;;
38797;SDS011;24546;52.240;16.826;2022-10-16T11:45:54;5.35;;;4.38;;
38797;SDS011;24546;52.240;16.826;2022-10-16T11:51:11;4.82;;;4.43;;
38797;SDS011;24546;52.240;16.826;2022-10-16T11:56:21;4.90;;;4.03;;
38797;SDS011;24546;52.240;16.826;2022-10-16T12:01:30;6.65;;;3.60;;
38797;SDS011;24546;52.240;16.826;2022-10-16T12:11:39;3.85;;;2.50;;
38797;SDS011;24546;52.240;16.826;2022-10-16T12:21:59;2.92;;;2.63;;
38797;SDS011;24546;52.240;16.826;2022-10-16T12:27:02;3.22;;;2.70;;
38797;SDS011;24546;52.240;16.826;2022-10-16T12:37:26;3.65;;;2.85;;
38797;SDS011;24546;52.240;16.826;2022-10-16T12:42:32;4.85;;;2.70;;
38797;SDS011;24546;52.240;16.826;2022-10-16T12:47:38;3.35;;;2.70;;
38797;SDS011;24546;52.240;16.826;2022-10-16T12:52:49;4.93;;;3.22;;
38797;SDS011;24546;52.240;16.826;2022-10-16T13:19:30;3.40;;;3.03;;
38797;SDS011;24546;52.240;16.826;2022-10-16T13:24:54;4.68;;;2.90;;
38797;SDS011;24546;52.240;16.826;2022-10-16T13:30:10;3.42;;;3.13;;
38797;SDS011;24546;52.240;16.826;2022-10-16T13:35:26;3.63;;;2.90;;
38797;SDS011;24546;52.240;16.826;2022-10-16T13:40:29;4.18;;;2.95;;
38797;SDS011;24546;52.240;16.826;2022-10-16T13:45:30;4.07;;;3.20;;
38797;SDS011;24546;52.240;16.826;2022-10-16T13:50:31;3.67;;;2.97;;
38797;SDS011;24546;52.240;16.826;2022-10-16T13:55:32;5.97;;;3.15;;
38797;SDS011;24546;52.240;16.826;2022-10-16T14:00:33;3.45;;;3.05;;
38797;SDS011;24546;52.240;16.826;2022-10-16T14:05:35;5.53;;;3.20;;
38797;SDS011;24546;52.240;16.826;2022-10-16T14:10:36;4.93;;;3.33;;
38797;SDS011;24546;52.240;16.826;2022-10-16T14:15:38;5.43;;;3.38;;
38797;SDS011;24546;52.240;16.826;2022-10-16T14:20:39;3.88;;;3.22;;
38797;SDS011;24546;52.240;16.826;2022-10-16T14:25:43;4.93;;;3.40;;
38797;SDS011;24546;52.240;16.826;2022-10-16T14:30:55;5.10;;;3.05;;
38797;SDS011;24546;52.240;16.826;2022-10-16T14:36:30;7.95;;;3.60;;
38797;SDS011;24546;52.240;16.826;2022-10-16T14:41:25;4.28;;;3.47;;
38797;SDS011;24546;52.240;16.826;2022-10-16T14:46:33;4.13;;;3.60;;
38797;SDS011;24546;52.240;16.826;2022-10-16T14:51:37;6.60;;;3.50;;
38797;SDS011;24546;52.240;16.826;2022-10-16T14:56:54;5.38;;;3.53;;
38797;SDS011;24546;52.240;16.826;2022-10-16T15:01:57;4.75;;;3.40;;
38797;SDS011;24546;52.240;16.826;2022-10-16T15:06:58;4.85;;;3.90;;
38797;SDS011;24546;52.240;16.826;2022-10-16T15:11:59;5.80;;;3.70;;
38797;SDS011;24546;52.240;16.826;2022-10-16T15:17:00;4.82;;;2.97;;
38797;SDS011;24546;52.240;16.826;2022-10-16T15:22:02;7.60;;;3.90;;
38797;SDS011;24546;52.240;16.826;2022-10-16T15:27:03;3.88;;;3.47;;
38797;SDS011;24546;52.240;16.826;2022-10-16T15:32:03;5.22;;;3.90;;
38797;SDS011;24546;52.240;16.826;2022-10-16T15:37:04;5.93;;;4.10;;
38797;SDS011;24546;52.240;16.826;2022-10-16T15:42:05;7.93;;;4.22;;
38797;SDS011;24546;52.240;16.826;2022-10-16T15:47:07;7.25;;;4.35;;
38797;SDS011;24546;52.240;16.826;2022-10-16T15:52:08;7.25;;;4.25;;
38797;SDS011;24546;52.240;16.826;2022-10-16T15:57:09;16.55;;;5.75;;
38797;SDS011;24546;52.240;16.826;2022-10-16T16:02:10;13.82;;;7.55;;
38797;SDS011;24546;52.240;16.826;2022-10-16T16:07:11;14.90;;;9.25;;
38797;SDS011;24546;52.240;16.826;2022-10-16T16:12:12;14.60;;;10.05;;
38797;SDS011;24546;52.240;16.826;2022-10-16T16:17:13;14.90;;;10.00;;
38797;SDS011;24546;52.240;16.826;2022-10-16T16:22:14;16.80;;;8.80;;
38797;SDS011;24546;52.240;16.826;2022-10-16T16:27:17;19.45;;;11.15;;
38797;SDS011;24546;52.240;16.826;2022-10-16T16:32:22;9.80;;;6.05;;
38797;SDS011;24546;52.240;16.826;2022-10-16T16:37:23;14.32;;;5.95;;
38797;SDS011;24546;52.240;16.826;2022-10-16T16:42:25;8.80;;;5.55;;
38797;SDS011;24546;52.240;16.826;2022-10-16T16:47:26;7.82;;;5.00;;
38797;SDS011;24546;52.240;16.826;2022-10-16T16:52:28;9.40;;;5.53;;
38797;SDS011;24546;52.240;16.826;2022-10-16T16:57:29;5.25;;;4.45;;
38797;SDS011;24546;52.240;16.826;2022-10-16T17:02:30;7.07;;;4.95;;
38797;SDS011;24546;52.240;16.826;2022-10-16T17:07:32;8.80;;;7.03;;
38797;SDS011;24546;52.240;16.826;2022-10-16T17:12:34;16.95;;;11.98;;
38797;SDS011;24546;52.240;16.826;2022-10-16T17:17:35;26.23;;;19.42;;
38797;SDS011;24546;52.240;16.826;2022-10-16T17:22:36;44.88;;;30.30;;
38797;SDS011;24546;52.240;16.826;2022-10-16T17:27:37;40.30;;;29.45;;
38797;SDS011;24546;52.240;16.826;2022-10-16T17:32:38;28.08;;;17.33;;
38797;SDS011;24546;52.240;16.826;2022-10-16T17:37:39;31.77;;;24.10;;
38797;SDS011;24546;52.240;16.826;2022-10-16T17:42:41;36.17;;;26.55;;
38797;SDS011;24546;52.240;16.826;2022-10-16T17:47:42;38.10;;;25.10;;
38797;SDS011;24546;52.240;16.826;2022-10-16T17:52:43;23.35;;;17.00;;
38797;SDS011;24546;52.240;16.826;2022-10-16T17:57:43;28.20;;;19.10;;
38797;SDS011;24546;52.240;16.826;2022-10-16T18:02:47;18.35;;;12.20;;
38797;SDS011;24546;52.240;16.826;2022-10-16T18:07:49;14.27;;;9.95;;
38797;SDS011;24546;52.240;16.826;2022-10-16T18:12:52;15.35;;;10.98;;
38797;SDS011;24546;52.240;16.826;2022-10-16T18:17:52;18.55;;;13.88;;
38797;SDS011;24546;52.240;16.826;2022-10-16T18:22:54;17.45;;;11.45;;
38797;SDS011;24546;52.240;16.826;2022-10-16T18:27:55;14.10;;;10.57;;
38797;SDS011;24546;52.240;16.826;2022-10-16T18:32:56;10.90;;;8.02;;
38797;SDS011;24546;52.240;16.826;2022-10-16T18:37:57;10.90;;;7.55;;
38797;SDS011;24546;52.240;16.826;2022-10-16T18:42:59;13.00;;;7.80;;
38797;SDS011;24546;52.240;16.826;2022-10-16T18:48:00;13.80;;;8.40;;
38797;SDS011;24546;52.240;16.826;2022-10-16T18:53:01;17.20;;;10.48;;
38797;SDS011;24546;52.240;16.826;2022-10-16T18:58:02;13.90;;;9.57;;
38797;SDS011;24546;52.240;16.826;2022-10-16T19:03:03;22.20;;;16.95;;
38797;SDS011;24546;52.240;16.826;2022-10-16T19:08:04;22.60;;;16.60;;
38797;SDS011;24546;52.240;16.826;2022-10-16T19:13:05;23.10;;;16.83;;
38797;SDS011;24546;52.240;16.826;2022-10-16T19:18:06;21.55;;;14.50;;
38797;SDS011;24546;52.240;16.826;2022-10-16T19:23:07;22.48;;;16.13;;
38797;SDS011;24546;52.240;16.826;2022-10-16T19:28:07;22.88;;;15.85;;
38797;SDS011;24546;52.240;16.826;2022-10-16T19:33:08;46.75;;;29.30;;
38797;SDS011;24546;52.240;16.826;2022-10-16T19:38:09;27.98;;;19.48;;
38797;SDS011;24546;52.240;16.826;2022-10-16T19:43:10;22.20;;;15.10;;
38797;SDS011;24546;52.240;16.826;2022-10-16T19:48:11;26.52;;;17.80;;
38797;SDS011;24546;52.240;16.826;2022-10-16T19:53:12;26.00;;;17.88;;
38797;SDS011;24546;52.240;16.826;2022-10-16T19:58:13;52.22;;;37.75;;
38797;SDS011;24546;52.240;16.826;2022-10-16T20:03:15;47.47;;;31.73;;
38797;SDS011;24546;52.240;16.826;2022-10-16T20:08:16;40.10;;;26.52;;
38797;SDS011;24546;52.240;16.826;2022-10-16T20:13:17;30.25;;;22.20;;
38797;SDS011;24546;52.240;16.826;2022-10-16T20:18:19;37.63;;;23.40;;
38797;SDS011;24546;52.240;16.826;2022-10-16T20:23:20;38.40;;;25.25;;
38797;SDS011;24546;52.240;16.826;2022-10-16T20:28:23;36.67;;;25.60;;
38797;SDS011;24546;52.240;16.826;2022-10-16T20:33:24;37.25;;;25.52;;
38797;SDS011;24546;52.240;16.826;2022-10-16T20:38:25;36.50;;;24.27;;
38797;SDS011;24546;52.240;16.826;2022-10-16T20:43:26;37.50;;;25.38;;
38797;SDS011;24546;52.240;16.826;2022-10-16T20:48:27;33.08;;;23.60;;
38797;SDS011;24546;52.240;16.826;2022-10-16T20:53:28;35.47;;;24.92;;
38797;SDS011;24546;52.240;16.826;2022-10-16T20:58:28;25.60;;;18.00;;
38797;SDS011;24546;52.240;16.826;2022-10-16T21:03:29;23.92;;;18.00;;
38797;SDS011;24546;52.240;16.826;2022-10-16T21:08:33;23.45;;;17.85;;
38797;SDS011;24546;52.240;16.826;2022-10-16T21:13:35;24.85;;;18.45;;
38797;SDS011;24546;52.240;16.826;2022-10-16T21:18:37;25.65;;;18.55;;
38797;SDS011;24546;52.240;16.826;2022-10-16T21:23:39;17.95;;;12.60;;
38797;SDS011;24546;52.240;16.826;2022-10-16T21:28:42;38.25;;;25.70;;
38797;SDS011;24546;52.240;16.826;2022-10-16T21:33:44;24.88;;;18.25;;
38797;SDS011;24546;52.240;16.826;2022-10-16T21:38:45;15.13;;;10.45;;
38797;SDS011;24546;52.240;16.826;2022-10-16T21:43:47;17.48;;;10.70;;
38797;SDS011;24546;52.240;16.826;2022-10-16T21:48:50;16.23;;;11.88;;
38797;SDS011;24546;52.240;16.826;2022-10-16T21:53:52;16.67;;;11.95;;
38797;SDS011;24546;52.240;16.826;2022-10-16T21:58:54;29.42;;;17.40;;
38797;SDS011;24546;52.240;16.826;2022-10-16T22:03:55;31.98;;;20.70;;
38797;SDS011;24546;52.240;16.826;2022-10-16T22:08:57;23.00;;;14.90;;
38797;SDS011;24546;52.240;16.826;2022-10-16T22:14:00;39.47;;;25.05;;
38797;SDS011;24546;52.240;16.826;2022-10-16T22:19:01;40.80;;;25.63;;
38797;SDS011;24546;52.240;16.826;2022-10-16T22:24:03;44.50;;;26.85;;
38797;SDS011;24546;52.240;16.826;2022-10-16T22:29:05;49.72;;;31.08;;
38797;SDS011;24546;52.240;16.826;2022-10-16T22:34:06;49.15;;;31.52;;
38797;SDS011;24546;52.240;16.826;2022-10-16T22:39:10;57.97;;;36.53;;
38797;SDS011;24546;52.240;16.826;2022-10-16T22:44:11;49.50;;;32.08;;
38797;SDS011;24546;52.240;16.826;2022-10-16T22:49:12;52.70;;;33.22;;
38797;SDS011;24546;52.240;16.826;2022-10-16T22:54:13;46.63;;;31.60;;
38797;SDS011;24546;52.240;16.826;2022-10-16T22:59:14;42.28;;;28.92;;
38797;SDS011;24546;52.240;16.826;2022-10-16T23:04:15;43.25;;;27.70;;
38797;SDS011;24546;52.240;16.826;2022-10-16T23:09:19;46.42;;;29.50;;
38797;SDS011;24546;52.240;16.826;2022-10-16T23:14:21;46.25;;;30.35;;
38797;SDS011;24546;52.240;16.826;2022-10-16T23:19:22;48.05;;;29.50;;
38797;SDS011;24546;52.240;16.826;2022-10-16T23:24:23;47.58;;;31.33;;
38797;SDS011;24546;52.240;16.826;2022-10-16T23:29:24;40.90;;;28.85;;
38797;SDS011;24546;52.240;16.826;2022-10-16T23:34:25;45.10;;;31.92;;
38797;SDS011;24546;52.240;16.826;2022-10-16T23:39:26;49.10;;;33.92;;
38797;SDS011;24546;52.240;16.826;2022-10-16T23:44:27;44.58;;;31.67;;
38797;SDS011;24546;52.240;16.826;2022-10-16T23:49:28;49.58;;;33.78;;
38797;SDS011;24546;52.240;16.826;2022-10-16T23:54:31;53.60;;;34.10;;
38797;SDS011;24546;52.240;16.826;2022-10-16T23:59:36;54.60;;;35.78;;
